Time,TemperatureF,DewpointF,PressureIn,WindDirection,WindDirectionDegrees,WindSpeedMPH,WindSpeedGustMPH,Humidity,HourlyPrecipIn,Conditions,Clouds,dailyrainin,SoftwareType,DateUTC
2013-03-20 00:00:00,47.3,22.3,30.06,SSE,158,0.0,-999.0,37,0.00,,,0.00,Wunderground v.1.15,2013-03-20 04:00:00,
2013-03-20 00:05:00,47.3,22.3,30.06,SSE,158,0.0,-999.0,37,0.00,,,0.00,Wunderground v.1.15,2013-03-20 04:05:00,
2013-03-20 00:10:00,47.3,22.3,30.06,SSE,158,0.0,-999.0,37,0.00,,,0.00,Wunderground v.1.15,2013-03-20 04:10:00,
2013-03-20 00:15:00,47.3,22.3,30.06,SSE,158,0.0,-999.0,37,0.00,,,0.00,Wunderground v.1.15,2013-03-20 04:15:00,
2013-03-20 00:20:00,47.3,22.3,30.06,SSE,158,0.0,-999.0,37,0.00,,,0.00,Wunderground v.1.15,2013-03-20 04:20:00,
2013-03-20 00:25:00,47.3,22.3,30.06,SSE,158,0.0,-999.0,37,0.00,,,0.00,Wunderground v.1.15,2013-03-20 04:25:00,
2013-03-20 00:30:00,47.3,22.3,30.06,SSE,158,0.0,-999.0,37,0.00,,,0.00,Wunderground v.1.15,2013-03-20 04:30:00,
2013-03-20 00:35:00,47.3,22.3,30.06,SSE,158,0.0,-999.0,37,0.00,,,0.00,Wunderground v.1.15,2013-03-20 04:35:00,
2013-03-20 00:40:00,47.3,22.3,30.06,SSE,158,0.0,-999.0,37,0.00,,,0.00,Wunderground v.1.15,2013-03-20 04:40:00,
2013-03-20 00:45:00,47.3,23.6,30.06,SSE,158,0.0,-999.0,39,0.00,,,0.00,Wunderground v.1.15,2013-03-20 04:45:00,
2013-03-20 00:50:00,47.3,23.6,30.06,SSE,158,0.0,-999.0,39,0.00,,,0.00,Wunderground v.1.15,2013-03-20 04:50:00,
2013-03-20 00:55:00,47.3,23.6,30.06,SSE,158,0.0,-999.0,39,0.00,,,0.00,Wunderground v.1.15,2013-03-20 04:55:00,
2013-03-20 01:00:00,47.3,23.6,30.06,SSE,158,0.0,-999.0,39,0.00,,,0.00,Wunderground v.1.15,2013-03-20 05:00:00,
2013-03-20 01:05:00,47.3,23.6,30.06,SSE,158,0.0,-999.0,39,0.00,,,0.00,Wunderground v.1.15,2013-03-20 05:05:00,
2013-03-20 01:10:00,47.3,23.6,30.06,SSE,158,0.0,-999.0,39,0.00,,,0.00,Wunderground v.1.15,2013-03-20 05:10:00,
2013-03-20 01:15:00,47.4,21.1,30.06,NE,45,0.0,-999.0,35,0.00,,,0.00,Wunderground v.1.15,2013-03-20 05:15:00,
2013-03-20 01:20:00,47.4,21.1,30.06,NE,45,0.0,-999.0,35,0.00,,,0.00,Wunderground v.1.15,2013-03-20 05:20:00,
2013-03-20 01:25:00,47.4,21.1,30.06,NE,45,0.0,-999.0,35,0.00,,,0.00,Wunderground v.1.15,2013-03-20 05:25:00,
2013-03-20 01:30:00,47.4,21.1,30.06,NE,45,0.0,-999.0,35,0.00,,,0.00,Wunderground v.1.15,2013-03-20 05:30:00,
2013-03-20 01:35:00,47.4,21.1,30.06,NE,45,0.0,-999.0,35,0.00,,,0.00,Wunderground v.1.15,2013-03-20 05:35:00,
2013-03-20 01:40:00,47.4,21.1,30.06,NE,45,0.0,-999.0,35,0.00,,,0.00,Wunderground v.1.15,2013-03-20 05:40:00,
2013-03-20 01:45:00,47.6,19.2,30.05,East,90,1.0,-999.0,32,0.00,,,0.00,Wunderground v.1.15,2013-03-20 05:45:00,
2013-03-20 01:50:00,47.6,19.2,30.05,East,90,1.0,-999.0,32,0.00,,,0.00,Wunderground v.1.15,2013-03-20 05:50:00,
2013-03-20 01:55:00,47.6,19.2,30.05,East,90,1.0,-999.0,32,0.00,,,0.00,Wunderground v.1.15,2013-03-20 05:55:00,
2013-03-20 02:00:00,47.6,19.2,30.05,East,90,1.0,-999.0,32,0.00,,,0.00,Wunderground v.1.15,2013-03-20 06:00:00,
2013-03-20 02:05:00,47.6,19.2,30.05,East,90,1.0,-999.0,32,0.00,,,0.00,Wunderground v.1.15,2013-03-20 06:05:00,
2013-03-20 02:10:00,47.6,19.2,30.05,East,90,1.0,-999.0,32,0.00,,,0.00,Wunderground v.1.15,2013-03-20 06:10:00,
2013-03-20 02:15:00,47.3,18.1,30.05,ENE,68,1.0,-999.0,31,0.00,,,0.00,Wunderground v.1.15,2013-03-20 06:15:00,
2013-03-20 02:20:00,47.3,18.1,30.05,ENE,68,1.0,-999.0,31,0.00,,,0.00,Wunderground v.1.15,2013-03-20 06:20:00,
2013-03-20 02:25:00,47.3,18.1,30.05,ENE,68,1.0,-999.0,31,0.00,,,0.00,Wunderground v.1.15,2013-03-20 06:25:00,
2013-03-20 02:30:00,47.3,18.1,30.05,ENE,68,1.0,-999.0,31,0.00,,,0.00,Wunderground v.1.15,2013-03-20 06:30:00,
2013-03-20 02:35:00,47.3,18.1,30.05,ENE,68,1.0,-999.0,31,0.00,,,0.00,Wunderground v.1.15,2013-03-20 06:35:00,
2013-03-20 02:40:00,47.3,18.1,30.05,ENE,68,1.0,-999.0,31,0.00,,,0.00,Wunderground v.1.15,2013-03-20 06:40:00,
2013-03-20 02:45:00,46.9,17.8,30.05,NE,45,1.0,-999.0,31,0.00,,,0.00,Wunderground v.1.15,2013-03-20 06:45:00,
2013-03-20 02:50:00,46.9,17.8,30.05,NE,45,1.0,-999.0,31,0.00,,,0.00,Wunderground v.1.15,2013-03-20 06:50:00,
2013-03-20 02:55:00,46.9,17.8,30.05,NE,45,1.0,-999.0,31,0.00,,,0.00,Wunderground v.1.15,2013-03-20 06:55:00,
2013-03-20 03:00:00,46.9,17.8,30.05,NE,45,1.0,-999.0,31,0.00,,,0.00,Wunderground v.1.15,2013-03-20 07:00:00,
2013-03-20 03:05:00,46.9,17.8,30.05,NE,45,1.0,-999.0,31,0.00,,,0.00,Wunderground v.1.15,2013-03-20 07:05:00,
2013-03-20 03:10:00,46.9,17.8,30.05,NE,45,1.0,-999.0,31,0.00,,,0.00,Wunderground v.1.15,2013-03-20 07:10:00,
2013-03-20 03:15:00,47.0,14.7,30.04,NNE,23,2.0,-999.0,27,0.00,,,0.00,Wunderground v.1.15,2013-03-20 07:15:00,
2013-03-20 03:20:00,47.0,14.7,30.04,NNE,23,2.0,-999.0,27,0.00,,,0.00,Wunderground v.1.15,2013-03-20 07:20:00,
2013-03-20 03:25:00,47.0,14.7,30.04,NNE,23,2.0,-999.0,27,0.00,,,0.00,Wunderground v.1.15,2013-03-20 07:25:00,
2013-03-20 03:30:00,47.0,14.7,30.04,NNE,23,2.0,-999.0,27,0.00,,,0.00,Wunderground v.1.15,2013-03-20 07:30:00,
2013-03-20 03:35:00,47.0,14.7,30.04,NNE,23,2.0,-999.0,27,0.00,,,0.00,Wunderground v.1.15,2013-03-20 07:35:00,
2013-03-20 03:40:00,47.0,14.7,30.04,NNE,23,2.0,-999.0,27,0.00,,,0.00,Wunderground v.1.15,2013-03-20 07:40:00,
2013-03-20 03:45:00,47.3,13.2,30.03,NE,45,2.0,-999.0,25,0.00,,,0.00,Wunderground v.1.15,2013-03-20 07:45:00,
2013-03-20 03:50:00,47.3,13.2,30.03,NE,45,2.0,-999.0,25,0.00,,,0.00,Wunderground v.1.15,2013-03-20 07:50:00,
2013-03-20 03:55:00,47.3,13.2,30.03,NE,45,2.0,-999.0,25,0.00,,,0.00,Wunderground v.1.15,2013-03-20 07:55:00,
2013-03-20 04:00:00,47.3,13.2,30.03,NE,45,2.0,-999.0,25,0.00,,,0.00,Wunderground v.1.15,2013-03-20 08:00:00,
2013-03-20 04:05:00,47.3,13.2,30.03,NE,45,2.0,-999.0,25,0.00,,,0.00,Wunderground v.1.15,2013-03-20 08:05:00,
2013-03-20 04:10:00,47.3,13.2,30.03,NE,45,2.0,-999.0,25,0.00,,,0.00,Wunderground v.1.15,2013-03-20 08:10:00,
2013-03-20 04:15:00,46.9,11.9,30.02,NNE,23,2.0,-999.0,24,0.00,,,0.00,Wunderground v.1.15,2013-03-20 08:15:00,
2013-03-20 04:20:00,46.9,11.9,30.02,NNE,23,2.0,-999.0,24,0.00,,,0.00,Wunderground v.1.15,2013-03-20 08:20:00,
2013-03-20 04:25:00,46.9,11.9,30.02,NNE,23,2.0,-999.0,24,0.00,,,0.00,Wunderground v.1.15,2013-03-20 08:25:00,
2013-03-20 04:30:00,46.9,11.9,30.02,NNE,23,2.0,-999.0,24,0.00,,,0.00,Wunderground v.1.15,2013-03-20 08:30:00,
2013-03-20 04:35:00,46.9,11.9,30.02,NNE,23,2.0,-999.0,24,0.00,,,0.00,Wunderground v.1.15,2013-03-20 08:35:00,
2013-03-20 04:40:00,46.9,11.9,30.02,NNE,23,2.0,-999.0,24,0.00,,,0.00,Wunderground v.1.15,2013-03-20 08:40:00,
2013-03-20 04:45:00,46.6,11.7,30.03,NNW,338,2.0,-999.0,24,0.00,,,0.00,Wunderground v.1.15,2013-03-20 08:45:00,
2013-03-20 04:50:00,46.6,11.7,30.03,NNW,338,2.0,-999.0,24,0.00,,,0.00,Wunderground v.1.15,2013-03-20 08:50:00,
2013-03-20 04:55:00,46.6,11.7,30.03,NNW,338,2.0,-999.0,24,0.00,,,0.00,Wunderground v.1.15,2013-03-20 08:55:00,
2013-03-20 05:00:00,46.6,11.7,30.03,NNW,338,2.0,-999.0,24,0.00,,,0.00,Wunderground v.1.15,2013-03-20 09:00:00,
2013-03-20 05:05:00,46.6,11.7,30.03,NNW,338,2.0,-999.0,24,0.00,,,0.00,Wunderground v.1.15,2013-03-20 09:05:00,
2013-03-20 05:10:00,46.6,11.7,30.03,NNW,338,2.0,-999.0,24,0.00,,,0.00,Wunderground v.1.15,2013-03-20 09:10:00,
2013-03-20 05:15:00,46.0,12.1,30.03,NE,45,1.0,-999.0,25,0.00,,,0.00,Wunderground v.1.15,2013-03-20 09:15:00,
2013-03-20 05:20:00,46.0,12.1,30.03,NE,45,1.0,-999.0,25,0.00,,,0.00,Wunderground v.1.15,2013-03-20 09:20:00,
2013-03-20 05:25:00,46.0,12.1,30.03,NE,45,1.0,-999.0,25,0.00,,,0.00,Wunderground v.1.15,2013-03-20 09:25:00,
2013-03-20 05:30:00,46.0,12.1,30.03,NE,45,1.0,-999.0,25,0.00,,,0.00,Wunderground v.1.15,2013-03-20 09:30:00,
2013-03-20 05:35:00,46.0,12.1,30.03,NE,45,1.0,-999.0,25,0.00,,,0.00,Wunderground v.1.15,2013-03-20 09:35:00,
2013-03-20 05:40:00,46.0,12.1,30.03,NE,45,1.0,-999.0,25,0.00,,,0.00,Wunderground v.1.15,2013-03-20 09:40:00,
2013-03-20 05:45:00,45.5,12.5,30.05,NNE,23,1.0,-999.0,26,0.00,,,0.00,Wunderground v.1.15,2013-03-20 09:45:00,
2013-03-20 05:50:00,45.5,12.5,30.05,NNE,23,1.0,-999.0,26,0.00,,,0.00,Wunderground v.1.15,2013-03-20 09:50:00,
2013-03-20 05:55:00,45.5,12.5,30.05,NNE,23,1.0,-999.0,26,0.00,,,0.00,Wunderground v.1.15,2013-03-20 09:55:00,
2013-03-20 06:00:00,45.5,12.5,30.05,NNE,23,1.0,-999.0,26,0.00,,,0.00,Wunderground v.1.15,2013-03-20 10:00:00,
2013-03-20 06:05:00,45.5,12.5,30.05,NNE,23,1.0,-999.0,26,0.00,,,0.00,Wunderground v.1.15,2013-03-20 10:05:00,
2013-03-20 06:10:00,45.5,12.5,30.05,NNE,23,1.0,-999.0,26,0.00,,,0.00,Wunderground v.1.15,2013-03-20 10:10:00,
2013-03-20 06:15:00,45.1,12.2,30.06,NE,45,1.0,-999.0,26,0.00,,,0.00,Wunderground v.1.15,2013-03-20 10:15:00,
2013-03-20 06:20:00,45.1,12.2,30.06,NE,45,1.0,-999.0,26,0.00,,,0.00,Wunderground v.1.15,2013-03-20 10:20:00,
2013-03-20 06:25:00,45.1,12.2,30.06,NE,45,1.0,-999.0,26,0.00,,,0.00,Wunderground v.1.15,2013-03-20 10:25:00,
2013-03-20 06:30:00,45.1,12.2,30.06,NE,45,1.0,-999.0,26,0.00,,,0.00,Wunderground v.1.15,2013-03-20 10:30:00,
2013-03-20 06:35:00,45.1,12.2,30.06,NE,45,1.0,-999.0,26,0.00,,,0.00,Wunderground v.1.15,2013-03-20 10:35:00,
2013-03-20 06:40:00,45.1,12.2,30.06,NE,45,1.0,-999.0,26,0.00,,,0.00,Wunderground v.1.15,2013-03-20 10:40:00,
2013-03-20 06:45:00,44.4,12.5,30.08,NNE,23,0.0,-999.0,27,0.00,,,0.00,Wunderground v.1.15,2013-03-20 10:45:00,
2013-03-20 06:50:00,44.4,12.5,30.08,NNE,23,0.0,-999.0,27,0.00,,,0.00,Wunderground v.1.15,2013-03-20 10:50:00,
2013-03-20 06:55:00,44.4,12.5,30.08,NNE,23,0.0,-999.0,27,0.00,,,0.00,Wunderground v.1.15,2013-03-20 10:55:00,
2013-03-20 07:00:00,44.4,12.5,30.08,NNE,23,0.0,-999.0,27,0.00,,,0.00,Wunderground v.1.15,2013-03-20 11:00:00,
2013-03-20 07:05:00,44.4,12.5,30.08,NNE,23,0.0,-999.0,27,0.00,,,0.00,Wunderground v.1.15,2013-03-20 11:05:00,
2013-03-20 07:10:00,44.4,12.5,30.08,NNE,23,0.0,-999.0,27,0.00,,,0.00,Wunderground v.1.15,2013-03-20 11:10:00,
2013-03-20 07:15:00,43.8,12.8,30.08,NNW,338,0.0,-999.0,28,0.00,,,0.00,Wunderground v.1.15,2013-03-20 11:15:00,
2013-03-20 07:20:00,43.8,12.8,30.08,NNW,338,0.0,-999.0,28,0.00,,,0.00,Wunderground v.1.15,2013-03-20 11:20:00,
2013-03-20 07:25:00,43.8,12.8,30.08,NNW,338,0.0,-999.0,28,0.00,,,0.00,Wunderground v.1.15,2013-03-20 11:25:00,
2013-03-20 07:30:00,43.8,12.8,30.08,NNW,338,0.0,-999.0,28,0.00,,,0.00,Wunderground v.1.15,2013-03-20 11:30:00,
2013-03-20 07:35:00,43.8,12.8,30.08,NNW,338,0.0,-999.0,28,0.00,,,0.00,Wunderground v.1.15,2013-03-20 11:35:00,
2013-03-20 07:40:00,43.8,12.8,30.08,NNW,338,0.0,-999.0,28,0.00,,,0.00,Wunderground v.1.15,2013-03-20 11:40:00,
2013-03-20 07:45:00,43.8,13.6,30.09,NNE,23,1.0,-999.0,29,0.00,,,0.00,Wunderground v.1.15,2013-03-20 11:45:00,
2013-03-20 07:50:00,43.8,13.6,30.09,NNE,23,1.0,-999.0,29,0.00,,,0.00,Wunderground v.1.15,2013-03-20 11:50:00,
2013-03-20 07:55:00,43.8,13.6,30.09,NNE,23,1.0,-999.0,29,0.00,,,0.00,Wunderground v.1.15,2013-03-20 11:55:00,
2013-03-20 08:00:00,43.8,13.6,30.09,NNE,23,1.0,-999.0,29,0.00,,,0.00,Wunderground v.1.15,2013-03-20 12:00:00,
2013-03-20 08:30:00,43.9,13.6,30.11,NNE,18,1.0,1.0,29,0.00,,,0.00,Wunderground v.1.15,2013-03-20 12:30:00,
2013-03-20 08:35:00,44.0,14.5,30.11,NNE,18,0.0,1.0,30,0.00,,,0.00,Wunderground v.1.15,2013-03-20 12:35:00,
2013-03-20 08:40:00,44.1,15.3,30.11,NNE,18,0.0,0.0,31,0.00,,,0.00,Wunderground v.1.15,2013-03-20 12:40:00,
2013-03-20 08:45:00,44.2,15.4,30.12,NNE,18,0.0,0.0,31,0.00,,,0.00,Wunderground v.1.15,2013-03-20 12:45:00,
2013-03-20 08:50:00,44.3,15.5,30.12,NW,322,0.0,0.0,31,0.00,,,0.00,Wunderground v.1.15,2013-03-20 12:50:00,
2013-03-20 08:55:00,44.5,14.9,30.12,NE,37,0.0,0.0,30,0.00,,,0.00,Wunderground v.1.15,2013-03-20 12:55:00,
2013-03-20 09:00:00,44.6,14.3,30.12,ENE,57,0.0,0.0,29,0.00,,,0.00,Wunderground v.1.15,2013-03-20 13:00:00,
2013-03-20 09:05:00,44.6,13.5,30.12,NNE,29,1.0,3.0,28,0.00,,,0.00,Wunderground v.1.15,2013-03-20 13:05:00,
2013-03-20 09:10:00,44.6,13.5,30.12,NNW,345,2.0,2.0,28,0.00,,,0.00,Wunderground v.1.15,2013-03-20 13:10:00,
2013-03-20 09:15:00,44.7,13.5,30.12,NNW,344,1.0,4.0,28,0.00,,,0.00,Wunderground v.1.15,2013-03-20 13:15:00,
2013-03-20 09:20:00,44.8,13.6,30.12,ENE,63,1.0,1.0,28,0.00,,,0.00,Wunderground v.1.15,2013-03-20 13:20:00,
2013-03-20 09:25:00,45.0,15.4,30.12,NE,42,1.0,1.0,30,0.00,,,0.00,Wunderground v.1.15,2013-03-20 13:25:00,
2013-03-20 09:30:00,45.1,14.7,30.11,NNE,14,1.0,2.0,29,0.00,,,0.00,Wunderground v.1.15,2013-03-20 13:30:00,
2013-03-20 09:35:00,45.2,14.8,30.12,North,9,1.0,2.0,29,0.00,,,0.00,Wunderground v.1.15,2013-03-20 13:35:00,
2013-03-20 09:40:00,45.2,14.8,30.12,NNW,336,1.0,1.0,29,0.00,,,0.00,Wunderground v.1.15,2013-03-20 13:40:00,
2013-03-20 09:45:00,45.4,15.7,30.12,North,355,1.0,3.0,30,0.00,,,0.00,Wunderground v.1.15,2013-03-20 13:45:00,
2013-03-20 09:50:00,45.4,14.9,30.12,North,355,0.0,0.0,29,0.00,,,0.00,Wunderground v.1.15,2013-03-20 13:50:00,
2013-03-20 09:55:00,45.5,15.8,30.12,NNE,24,1.0,2.0,30,0.00,,,0.00,Wunderground v.1.15,2013-03-20 13:55:00,
2013-03-20 10:00:00,45.6,14.3,30.12,North,355,1.0,1.0,28,0.00,,,0.00,Wunderground v.1.15,2013-03-20 14:00:00,
2013-03-20 10:05:00,45.5,15.0,30.12,NNW,333,2.0,2.0,29,0.00,,,0.00,Wunderground v.1.15,2013-03-20 14:05:00,
2013-03-20 10:10:00,45.6,14.3,30.11,ENE,75,2.0,2.0,28,0.00,,,0.00,Wunderground v.1.15,2013-03-20 14:10:00,
2013-03-20 10:15:00,45.9,14.6,30.11,NE,54,1.0,3.0,28,0.00,,,0.00,Wunderground v.1.15,2013-03-20 14:15:00,
2013-03-20 10:20:00,46.1,14.8,30.11,North,9,1.0,1.0,28,0.00,,,0.00,Wunderground v.1.15,2013-03-20 14:20:00,
2013-03-20 10:25:00,46.4,15.0,30.11,NNW,329,1.0,3.0,28,0.00,,,0.00,Wunderground v.1.15,2013-03-20 14:25:00,
2013-03-20 10:30:00,46.7,16.1,30.11,North,355,1.0,1.0,29,0.00,,,0.00,Wunderground v.1.15,2013-03-20 14:30:00,
2013-03-20 10:35:00,47.0,15.5,30.10,North,355,1.0,4.0,28,0.00,,,0.00,Wunderground v.1.15,2013-03-20 14:35:00,
2013-03-20 10:40:00,47.2,15.7,30.10,NNW,344,1.0,1.0,28,0.00,,,0.00,Wunderground v.1.15,2013-03-20 14:40:00,
2013-03-20 10:45:00,47.5,16.0,30.10,North,355,1.0,3.0,28,0.00,,,0.00,Wunderground v.1.15,2013-03-20 14:45:00,
2013-03-20 10:50:00,47.6,15.2,30.10,NE,43,1.0,4.0,27,0.00,,,0.00,Wunderground v.1.15,2013-03-20 14:50:00,
2013-03-20 10:55:00,47.5,16.0,30.10,NNW,347,2.0,4.0,28,0.00,,,0.00,Wunderground v.1.15,2013-03-20 14:55:00,
2013-03-20 11:00:00,47.5,14.3,30.10,ENE,62,3.0,3.0,26,0.00,,,0.00,Wunderground v.1.15,2013-03-20 15:00:00,
2013-03-20 11:05:00,47.4,15.9,30.10,ENE,63,3.0,3.0,28,0.00,,,0.00,Wunderground v.1.15,2013-03-20 15:05:00,
2013-03-20 11:10:00,47.4,14.2,30.10,NE,36,2.0,4.0,26,0.00,,,0.00,Wunderground v.1.15,2013-03-20 15:10:00,
2013-03-20 11:15:00,47.4,15.0,30.10,NNW,333,2.0,4.0,27,0.00,,,0.00,Wunderground v.1.15,2013-03-20 15:15:00,
2013-03-20 11:20:00,47.8,17.0,30.10,NNW,336,1.0,1.0,29,0.00,,,0.00,Wunderground v.1.15,2013-03-20 15:20:00,
2013-03-20 11:25:00,48.3,16.7,30.09,WSW,237,1.0,3.0,28,0.00,,,0.00,Wunderground v.1.15,2013-03-20 15:25:00,
2013-03-20 11:30:00,48.3,17.5,30.09,WSW,240,2.0,2.0,29,0.00,,,0.00,Wunderground v.1.15,2013-03-20 15:30:00,
2013-03-20 11:35:00,48.7,17.0,30.10,North,5,2.0,3.0,28,0.00,,,0.00,Wunderground v.1.15,2013-03-20 15:35:00,
2013-03-20 11:40:00,49.3,17.5,30.09,WSW,253,1.0,3.0,28,0.00,,,0.00,Wunderground v.1.15,2013-03-20 15:40:00,
2013-03-20 11:45:00,49.7,18.7,30.09,NNE,22,1.0,3.0,29,0.00,,,0.00,Wunderground v.1.15,2013-03-20 15:45:00,
2013-03-20 11:50:00,49.5,16.9,30.09,SW,235,2.0,5.0,27,0.00,,,0.00,Wunderground v.1.15,2013-03-20 15:50:00,
2013-03-20 11:55:00,49.0,16.4,30.09,WSW,237,3.0,5.0,27,0.00,,,0.00,Wunderground v.1.15,2013-03-20 15:55:00,
2013-03-20 12:00:00,48.6,15.2,30.09,West,261,3.0,3.0,26,0.00,,,0.00,Wunderground v.1.15,2013-03-20 16:00:00,
2013-03-20 12:05:00,48.5,16.0,30.09,WSW,238,2.0,3.0,27,0.00,,,0.00,Wunderground v.1.15,2013-03-20 16:05:00,
2013-03-20 12:10:00,48.9,16.3,30.08,South,190,1.0,1.0,27,0.00,,,0.00,Wunderground v.1.15,2013-03-20 16:10:00,
2013-03-20 12:15:00,49.3,18.3,30.08,WSW,241,1.0,3.0,29,0.00,,,0.00,Wunderground v.1.15,2013-03-20 16:15:00,
2013-03-20 12:20:00,49.3,17.5,30.08,WSW,242,2.0,3.0,28,0.00,,,0.00,Wunderground v.1.15,2013-03-20 16:20:00,
2013-03-20 12:25:00,49.4,17.6,30.08,West,275,2.0,3.0,28,0.00,,,0.00,Wunderground v.1.15,2013-03-20 16:25:00,
2013-03-20 12:35:00,49.4,19.2,30.07,South,189,2.0,3.0,30,0.00,,,0.00,Wunderground v.1.15,2013-03-20 16:35:00,
2013-03-20 12:40:00,49.8,19.6,30.07,SW,227,1.0,1.0,30,0.00,,,0.00,Wunderground v.1.15,2013-03-20 16:40:00,
2013-03-20 12:45:00,50.2,21.4,30.07,SW,223,1.0,3.0,32,0.00,,,0.00,Wunderground v.1.15,2013-03-20 16:45:00,
2013-03-20 12:50:00,50.8,20.4,30.07,SSW,198,1.0,3.0,30,0.00,,,0.00,Wunderground v.1.15,2013-03-20 16:50:00,
2013-03-20 12:55:00,51.2,20.8,30.06,South,188,1.0,3.0,30,0.00,,,0.00,Wunderground v.1.15,2013-03-20 16:55:00,
2013-03-20 13:00:00,51.2,22.3,30.05,WSW,244,1.0,3.0,32,0.00,,,0.00,Wunderground v.1.15,2013-03-20 17:00:00,
2013-03-20 13:05:00,51.7,20.4,30.05,SSW,200,1.0,3.0,29,0.00,,,0.00,Wunderground v.1.15,2013-03-20 17:05:00,
2013-03-20 13:10:00,52.4,23.4,30.05,SSW,208,1.0,3.0,32,0.00,,,0.00,Wunderground v.1.15,2013-03-20 17:10:00,
2013-03-20 13:15:00,53.3,21.8,30.04,WSW,245,1.0,3.0,29,0.00,,,0.00,Wunderground v.1.15,2013-03-20 17:15:00,
2013-03-20 13:20:00,52.8,18.8,30.04,SE,133,2.0,2.0,26,0.00,,,0.00,Wunderground v.1.15,2013-03-20 17:20:00,
2013-03-20 13:25:00,52.9,23.8,30.04,SSW,198,1.0,3.0,32,0.00,,,0.00,Wunderground v.1.15,2013-03-20 17:25:00,
2013-03-20 13:30:00,53.2,21.7,30.03,SW,232,1.0,3.0,29,0.00,,,0.00,Wunderground v.1.15,2013-03-20 17:30:00,
2013-03-20 13:35:00,53.2,21.7,30.02,SSE,153,1.0,3.0,29,0.00,,,0.00,Wunderground v.1.15,2013-03-20 17:35:00,
2013-03-20 13:40:00,52.4,18.5,30.02,West,270,1.0,3.0,26,0.00,,,0.00,Wunderground v.1.15,2013-03-20 17:40:00,
2013-03-20 13:45:00,52.5,18.6,30.02,SSW,198,1.0,3.0,26,0.00,,,0.00,Wunderground v.1.15,2013-03-20 17:45:00,
2013-03-20 13:50:00,52.4,21.8,30.01,West,261,1.0,1.0,30,0.00,,,0.00,Wunderground v.1.15,2013-03-20 17:50:00,
2013-03-20 13:55:00,52.7,22.9,30.01,SSW,208,1.0,3.0,31,0.00,,,0.00,Wunderground v.1.15,2013-03-20 17:55:00,
2013-03-20 14:00:00,53.1,23.2,30.01,WSW,248,1.0,3.0,31,0.00,,,0.00,Wunderground v.1.15,2013-03-20 18:00:00,
2013-03-20 14:05:00,53.6,22.1,30.00,SSW,208,1.0,3.0,29,0.00,,,0.00,Wunderground v.1.15,2013-03-20 18:05:00,
2013-03-20 14:10:00,53.8,22.2,30.00,SSE,161,1.0,1.0,29,0.00,,,0.00,Wunderground v.1.15,2013-03-20 18:10:00,
2013-03-20 14:15:00,53.7,23.0,30.00,SSW,202,1.0,3.0,30,0.00,,,0.00,Wunderground v.1.15,2013-03-20 18:15:00,
2013-03-20 14:20:00,53.8,22.2,29.99,SSW,194,1.0,3.0,29,0.00,,,0.00,Wunderground v.1.15,2013-03-20 18:20:00,
2013-03-20 14:25:00,53.9,21.5,29.99,SSW,205,1.0,3.0,28,0.00,,,0.00,Wunderground v.1.15,2013-03-20 18:25:00,
2013-03-20 14:30:00,54.3,22.7,29.98,South,177,1.0,5.0,29,0.00,,,0.00,Wunderground v.1.15,2013-03-20 18:30:00,
2013-03-20 14:35:00,54.0,23.2,29.98,WSW,238,2.0,5.0,30,0.00,,,0.00,Wunderground v.1.15,2013-03-20 18:35:00,
2013-03-20 14:40:00,54.0,19.8,29.97,SW,219,3.0,3.0,26,0.00,,,0.00,Wunderground v.1.15,2013-03-20 18:40:00,
2013-03-20 14:45:00,53.9,19.8,29.97,WSW,242,2.0,3.0,26,0.00,,,0.00,Wunderground v.1.15,2013-03-20 18:45:00,
2013-03-20 14:50:00,53.8,23.1,29.96,SW,232,3.0,3.0,30,0.00,,,0.00,Wunderground v.1.15,2013-03-20 18:50:00,
2013-03-20 14:55:00,54.4,24.4,29.95,SE,130,3.0,4.0,31,0.00,,,0.00,Wunderground v.1.15,2013-03-20 18:55:00,
2013-03-20 15:00:00,54.7,23.0,29.95,South,178,2.0,2.0,29,0.00,,,0.00,Wunderground v.1.15,2013-03-20 19:00:00,
2013-03-20 15:05:00,55.0,20.7,29.94,West,273,1.0,3.0,26,0.00,,,0.00,Wunderground v.1.15,2013-03-20 19:05:00,
2013-03-20 15:10:00,55.0,22.4,29.93,SSW,198,1.0,1.0,28,0.00,,,0.00,Wunderground v.1.15,2013-03-20 19:10:00,
2013-03-20 15:15:00,55.2,20.9,29.93,South,183,1.0,3.0,26,0.00,,,0.00,Wunderground v.1.15,2013-03-20 19:15:00,
2013-03-20 15:20:00,55.3,21.0,29.93,West,275,3.0,5.0,26,0.00,,,0.00,Wunderground v.1.15,2013-03-20 19:20:00,
2013-03-20 15:25:00,55.5,20.2,29.93,SE,137,3.0,5.0,25,0.00,,,0.00,Wunderground v.1.15,2013-03-20 19:25:00,
2013-03-20 15:30:00,55.8,22.3,29.92,South,175,2.0,2.0,27,0.00,,,0.00,Wunderground v.1.15,2013-03-20 19:30:00,
2013-03-20 15:35:00,55.8,22.3,29.91,SSE,157,2.0,5.0,27,0.00,,,0.00,Wunderground v.1.15,2013-03-20 19:35:00,
2013-03-20 15:40:00,56.2,21.7,29.91,West,270,3.0,8.0,26,0.00,,,0.00,Wunderground v.1.15,2013-03-20 19:40:00,
2013-03-20 15:45:00,56.6,23.0,29.90,South,188,3.0,8.0,27,0.00,,,0.00,Wunderground v.1.15,2013-03-20 19:45:00,
2013-03-20 15:50:00,56.4,21.0,29.90,WSW,252,3.0,4.0,25,0.00,,,0.00,Wunderground v.1.15,2013-03-20 19:50:00,
2013-03-20 15:55:00,56.1,19.8,29.90,South,179,3.0,4.0,24,0.00,,,0.00,Wunderground v.1.15,2013-03-20 19:55:00,
2013-03-20 16:00:00,56.1,21.6,29.89,SSW,192,2.0,2.0,26,0.00,,,0.00,Wunderground v.1.15,2013-03-20 20:00:00,
2013-03-20 16:05:00,56.4,21.9,29.89,South,169,1.0,3.0,26,0.00,,,0.00,Wunderground v.1.15,2013-03-20 20:05:00,
2013-03-20 16:10:00,56.7,23.0,29.89,SW,233,1.0,3.0,27,0.00,,,0.00,Wunderground v.1.15,2013-03-20 20:10:00,
2013-03-20 16:15:00,56.5,21.1,29.89,SSE,159,2.0,3.0,25,0.00,,,0.00,Wunderground v.1.15,2013-03-20 20:15:00,
2013-03-20 16:20:00,56.3,21.8,29.88,ESE,111,3.0,3.0,26,0.00,,,0.00,Wunderground v.1.15,2013-03-20 20:20:00,
2013-03-20 16:25:00,56.5,21.1,29.88,SE,135,1.0,3.0,25,0.00,,,0.00,Wunderground v.1.15,2013-03-20 20:25:00,
2013-03-20 16:30:00,56.9,22.3,29.88,WSW,252,1.0,4.0,26,0.00,,,0.00,Wunderground v.1.15,2013-03-20 20:30:00,
2013-03-20 16:35:00,56.9,20.4,29.87,South,183,3.0,4.0,24,0.00,,,0.00,Wunderground v.1.15,2013-03-20 20:35:00,
2013-03-20 16:40:00,56.8,20.3,29.87,SSE,161,3.0,3.0,24,0.00,,,0.00,Wunderground v.1.15,2013-03-20 20:40:00,
2013-03-20 16:45:00,56.8,19.3,29.87,South,184,2.0,4.0,23,0.00,,,0.00,Wunderground v.1.15,2013-03-20 20:45:00,
2013-03-20 16:50:00,57.1,20.6,29.87,WSW,242,2.0,8.0,24,0.00,,,0.00,Wunderground v.1.15,2013-03-20 20:50:00,
2013-03-20 16:55:00,56.8,19.3,29.86,South,177,4.0,8.0,23,0.00,,,0.00,Wunderground v.1.15,2013-03-20 20:55:00,
2013-03-20 17:00:00,56.9,19.4,29.86,West,259,4.0,4.0,23,0.00,,,0.00,Wunderground v.1.15,2013-03-20 21:00:00,
2013-03-20 17:05:00,57.1,19.6,29.86,WSW,257,4.0,5.0,23,0.00,,,0.00,Wunderground v.1.15,2013-03-20 21:05:00,
2013-03-20 17:10:00,56.8,18.3,29.86,SW,223,5.0,5.0,22,0.00,,,0.00,Wunderground v.1.15,2013-03-20 21:10:00,
2013-03-20 17:15:00,57.2,17.6,29.85,West,271,4.0,5.0,21,0.00,,,0.00,Wunderground v.1.15,2013-03-20 21:15:00,
2013-03-20 17:20:00,56.9,18.4,29.85,WSW,248,5.0,5.0,22,0.00,,,0.00,Wunderground v.1.15,2013-03-20 21:20:00,
2013-03-20 17:25:00,56.8,20.3,29.85,WSW,245,5.0,5.0,24,0.00,,,0.00,Wunderground v.1.15,2013-03-20 21:25:00,
2013-03-20 17:30:00,57.0,18.5,29.85,West,265,5.0,6.0,22,0.00,,,0.00,Wunderground v.1.15,2013-03-20 21:30:00,
2013-03-20 17:35:00,57.1,20.6,29.85,SW,236,3.0,6.0,24,0.00,,,0.00,Wunderground v.1.15,2013-03-20 21:35:00,
2013-03-20 17:40:00,57.5,20.9,29.85,WSW,248,3.0,8.0,24,0.00,,,0.00,Wunderground v.1.15,2013-03-20 21:40:00,
2013-03-20 17:45:00,57.6,21.0,29.84,WSW,256,4.0,8.0,24,0.00,,,0.00,Wunderground v.1.15,2013-03-20 21:45:00,
2013-03-20 17:50:00,57.4,19.9,29.84,WSW,244,4.0,4.0,23,0.00,,,0.00,Wunderground v.1.15,2013-03-20 21:50:00,
2013-03-20 17:55:00,57.1,18.6,29.84,SSW,200,4.0,4.0,22,0.00,,,0.00,Wunderground v.1.15,2013-03-20 21:55:00,
2013-03-20 18:00:00,57.1,19.6,29.84,SSW,194,4.0,4.0,23,0.00,,,0.00,Wunderground v.1.15,2013-03-20 22:00:00,
2013-03-20 18:05:00,56.8,20.3,29.84,South,182,3.0,9.0,24,0.00,,,0.00,Wunderground v.1.15,2013-03-20 22:05:00,
2013-03-20 18:10:00,56.8,21.3,29.84,SW,216,2.0,2.0,25,0.00,,,0.00,Wunderground v.1.15,2013-03-20 22:10:00,
2013-03-20 18:15:00,56.9,23.2,29.83,SSE,157,2.0,9.0,27,0.00,,,0.00,Wunderground v.1.15,2013-03-20 22:15:00,
2013-03-20 18:20:00,56.7,20.3,29.83,South,171,2.0,2.0,24,0.00,,,0.00,Wunderground v.1.15,2013-03-20 22:20:00,
2013-03-20 18:25:00,56.8,21.3,29.83,WSW,238,2.0,9.0,25,0.00,,,0.00,Wunderground v.1.15,2013-03-20 22:25:00,
2013-03-20 18:30:00,57.0,22.4,29.83,WSW,242,2.0,9.0,26,0.00,,,0.00,Wunderground v.1.15,2013-03-20 22:30:00,
2013-03-20 18:35:00,56.6,22.1,29.83,SW,232,2.0,9.0,26,0.00,,,0.00,Wunderground v.1.15,2013-03-20 22:35:00,
2013-03-20 18:40:00,55.8,21.4,29.83,SSW,207,2.0,2.0,26,0.00,,,0.00,Wunderground v.1.15,2013-03-20 22:40:00,
2013-03-20 18:45:00,54.8,22.3,29.83,South,188,2.0,9.0,28,0.00,,,0.00,Wunderground v.1.15,2013-03-20 22:45:00,
2013-03-20 18:50:00,54.4,23.6,29.83,South,169,1.0,9.0,30,0.00,,,0.00,Wunderground v.1.15,2013-03-20 22:50:00,
2013-03-20 18:55:00,54.0,24.0,29.83,SW,219,1.0,9.0,31,0.00,,,0.00,Wunderground v.1.15,2013-03-20 22:55:00,
2013-03-20 19:00:00,53.6,24.4,29.83,SSW,196,1.0,1.0,32,0.00,,,0.00,Wunderground v.1.15,2013-03-20 23:00:00,
2013-03-20 19:05:00,53.2,22.5,29.83,South,182,1.0,2.0,30,0.00,,,0.00,Wunderground v.1.15,2013-03-20 23:05:00,
2013-03-20 19:10:00,53.0,23.9,29.83,SSW,206,1.0,1.0,32,0.00,,,0.00,Wunderground v.1.15,2013-03-20 23:10:00,
2013-03-20 19:15:00,52.9,23.0,29.83,SSW,195,1.0,9.0,31,0.00,,,0.00,Wunderground v.1.15,2013-03-20 23:15:00,
2013-03-20 19:20:00,52.9,23.0,29.83,SSW,196,0.0,9.0,31,0.00,,,0.00,Wunderground v.1.15,2013-03-20 23:20:00,
2013-03-20 19:25:00,52.9,23.8,29.82,South,189,1.0,9.0,32,0.00,,,0.00,Wunderground v.1.15,2013-03-20 23:25:00,
2013-03-20 19:30:00,53.1,24.0,29.83,SSW,209,1.0,1.0,32,0.00,,,0.00,Wunderground v.1.15,2013-03-20 23:30:00,
2013-03-20 19:35:00,53.1,24.7,29.82,South,171,1.0,9.0,33,0.00,,,0.00,Wunderground v.1.15,2013-03-20 23:35:00,
2013-03-20 19:40:00,53.0,25.3,29.82,South,171,1.0,1.0,34,0.00,,,0.00,Wunderground v.1.15,2013-03-20 23:40:00,
2013-03-20 19:45:00,52.9,26.6,29.82,SSW,193,0.0,9.0,36,0.00,,,0.00,Wunderground v.1.15,2013-03-20 23:45:00,
2013-03-20 19:50:00,52.8,24.5,29.82,South,180,1.0,1.0,33,0.00,,,0.00,Wunderground v.1.15,2013-03-20 23:50:00,
2013-03-20 19:55:00,52.8,25.9,29.82,South,191,1.0,9.0,35,0.00,,,0.00,Wunderground v.1.15,2013-03-20 23:55:00,
2013-03-20 20:00:00,52.7,25.8,29.82,South,190,1.0,1.0,35,0.00,,,0.00,Wunderground v.1.15,2013-03-21 00:00:00,
2013-03-20 20:05:00,52.6,27.7,29.82,SW,214,0.0,9.0,38,0.00,,,0.00,Wunderground v.1.15,2013-03-21 00:05:00,
2013-03-20 20:10:00,52.5,27.6,29.82,WSW,239,1.0,9.0,38,0.00,,,0.00,Wunderground v.1.15,2013-03-21 00:10:00,
2013-03-20 20:15:00,52.4,23.4,29.82,South,185,2.0,9.0,32,0.00,,,0.00,Wunderground v.1.15,2013-03-21 00:15:00,
2013-03-20 20:20:00,52.7,24.4,29.82,SW,233,4.0,4.0,33,0.00,,,0.00,Wunderground v.1.15,2013-03-21 00:20:00,
2013-03-20 20:25:00,52.6,22.8,29.82,South,175,4.0,9.0,31,0.00,,,0.00,Wunderground v.1.15,2013-03-21 00:25:00,
2013-03-20 20:30:00,52.7,23.6,29.82,WNW,288,3.0,3.0,32,0.00,,,0.00,Wunderground v.1.15,2013-03-21 00:30:00,
2013-03-20 20:35:00,52.6,24.3,29.82,WSW,240,3.0,9.0,33,0.00,,,0.00,Wunderground v.1.15,2013-03-21 00:35:00,
2013-03-20 20:40:00,52.4,24.1,29.82,SW,233,2.0,2.0,33,0.00,,,0.00,Wunderground v.1.15,2013-03-21 00:40:00,
2013-03-20 20:45:00,52.2,23.9,29.82,SW,233,1.0,9.0,33,0.00,,,0.00,Wunderground v.1.15,2013-03-21 00:45:00,
2013-03-20 20:50:00,52.0,23.8,29.81,SW,233,0.0,9.0,33,0.00,,,0.00,Wunderground v.1.15,2013-03-21 00:50:00,
2013-03-20 20:55:00,51.7,26.2,29.81,SW,233,0.0,9.0,37,0.00,,,0.00,Wunderground v.1.15,2013-03-21 00:55:00,
2013-03-20 21:00:00,51.6,25.5,29.81,SW,233,0.0,9.0,36,0.00,,,0.00,Wunderground v.1.15,2013-03-21 01:00:00,
2013-03-20 21:05:00,51.6,24.1,29.81,SSE,163,0.0,9.0,34,0.00,,,0.00,Wunderground v.1.15,2013-03-21 01:05:00,
2013-03-20 21:10:00,51.8,23.6,29.81,WSW,258,1.0,1.0,33,0.00,,,0.00,Wunderground v.1.15,2013-03-21 01:10:00,
2013-03-20 21:15:00,51.7,25.6,29.81,WSW,258,2.0,2.0,36,0.00,,,0.00,Wunderground v.1.15,2013-03-21 01:15:00,
2013-03-20 21:20:00,51.6,25.5,29.81,WSW,258,0.0,9.0,36,0.00,,,0.00,Wunderground v.1.15,2013-03-21 01:20:00,
2013-03-20 21:25:00,51.4,24.6,29.81,WSW,258,0.0,9.0,35,0.00,,,0.00,Wunderground v.1.15,2013-03-21 01:25:00,
2013-03-20 21:30:00,51.2,26.4,29.81,WNW,294,0.0,9.0,38,0.00,,,0.00,Wunderground v.1.15,2013-03-21 01:30:00,
2013-03-20 21:35:00,51.6,24.1,29.81,WSW,245,1.0,9.0,34,0.00,,,0.00,Wunderground v.1.15,2013-03-21 01:35:00,
2013-03-20 21:40:00,51.8,24.3,29.80,SW,221,2.0,2.0,34,0.00,,,0.00,Wunderground v.1.15,2013-03-21 01:40:00,
2013-03-20 21:45:00,52.1,24.6,29.80,WSW,250,1.0,9.0,34,0.00,,,0.00,Wunderground v.1.15,2013-03-21 01:45:00,
2013-03-20 21:50:00,52.0,23.8,29.80,WSW,250,0.0,9.0,33,0.00,,,0.00,Wunderground v.1.15,2013-03-21 01:50:00,
2013-03-20 21:55:00,51.9,25.1,29.80,WSW,250,0.0,9.0,35,0.00,,,0.00,Wunderground v.1.15,2013-03-21 01:55:00,
2013-03-20 22:00:00,51.7,26.2,29.80,WSW,247,0.0,9.0,37,0.00,,,0.00,Wunderground v.1.15,2013-03-21 02:00:00,
2013-03-20 22:05:00,51.2,27.7,29.81,WSW,243,1.0,9.0,40,0.00,,,0.00,Wunderground v.1.15,2013-03-21 02:05:00,
2013-03-20 22:10:00,51.3,26.5,29.81,West,278,3.0,3.0,38,0.00,,,0.00,Wunderground v.1.15,2013-03-21 02:10:00,
2013-03-20 22:15:00,51.3,27.2,29.81,West,273,3.0,4.0,39,0.00,,,0.00,Wunderground v.1.15,2013-03-21 02:15:00,
2013-03-20 22:20:00,51.0,28.1,29.81,East,81,4.0,9.0,41,0.00,,,0.00,Wunderground v.1.15,2013-03-21 02:20:00,
2013-03-20 22:25:00,50.7,29.6,29.81,SE,142,5.0,9.0,44,0.00,,,0.00,Wunderground v.1.15,2013-03-21 02:25:00,
2013-03-20 22:30:00,50.4,28.7,29.82,WSW,238,5.0,5.0,43,0.00,,,0.00,Wunderground v.1.15,2013-03-21 02:30:00,
2013-03-20 22:35:00,50.2,29.1,29.81,SSW,194,4.0,9.0,44,0.00,,,0.00,Wunderground v.1.15,2013-03-21 02:35:00,
2013-03-20 22:40:00,50.1,29.0,29.80,South,189,2.0,2.0,44,0.00,,,0.00,Wunderground v.1.15,2013-03-21 02:40:00,
2013-03-20 22:45:00,49.9,27.7,29.80,SSE,148,1.0,4.0,42,0.00,,,0.00,Wunderground v.1.15,2013-03-21 02:45:00,
2013-03-20 23:00:00,49.4,27.2,29.79,WSW,248,1.0,-999.0,42,0.00,,,0.00,Wunderground v.1.15,2013-03-21 03:00:00,
2013-03-20 23:05:00,49.4,27.2,29.79,WSW,248,1.0,-999.0,42,0.00,,,0.00,Wunderground v.1.15,2013-03-21 03:05:00,
2013-03-20 23:10:00,49.4,27.2,29.79,WSW,248,1.0,-999.0,42,0.00,,,0.00,Wunderground v.1.15,2013-03-21 03:10:00,
2013-03-20 23:15:00,47.3,29.1,29.79,NE,45,0.0,-999.0,49,0.00,,,0.00,Wunderground v.1.15,2013-03-21 03:15:00,
2013-03-20 23:20:00,47.3,29.1,29.79,NE,45,0.0,-999.0,49,0.00,,,0.00,Wunderground v.1.15,2013-03-21 03:20:00,
2013-03-20 23:25:00,47.3,29.1,29.79,NE,45,0.0,-999.0,49,0.00,,,0.00,Wunderground v.1.15,2013-03-21 03:25:00,
2013-03-20 23:30:00,47.3,29.1,29.79,NE,45,0.0,-999.0,49,0.00,,,0.00,Wunderground v.1.15,2013-03-21 03:30:00,
2013-03-20 23:35:00,47.3,29.1,29.79,NE,45,0.0,-999.0,49,0.00,,,0.00,Wunderground v.1.15,2013-03-21 03:35:00,
2013-03-20 23:40:00,47.3,29.1,29.79,NE,45,0.0,-999.0,49,0.00,,,0.00,Wunderground v.1.15,2013-03-21 03:40:00,
2013-03-20 23:45:00,47.5,29.8,29.79,WSW,248,1.0,-999.0,50,0.00,,,0.00,Wunderground v.1.15,2013-03-21 03:45:00,
2013-03-20 23:50:00,47.5,29.8,29.79,WSW,248,1.0,-999.0,50,0.00,,,0.00,Wunderground v.1.15,2013-03-21 03:50:00,
2013-03-20 23:55:00,47.5,29.8,29.79,WSW,248,1.0,-999.0,50,0.00,,,0.00,Wunderground v.1.15,2013-03-21 03:55:00,